createdAt,value
2022-09-05T00:01:58.599Z,91.10
2022-09-05T00:04:40.368Z,92.25
2022-09-05T00:07:31.151Z,92.45
2022-09-05T00:10:37.140Z,93.73
2022-09-05T00:13:10.804Z,94.85
2022-09-05T00:15:55.808Z,95.30
2022-09-05T00:24:18.451Z,94.94
2022-09-05T00:24:25.375Z,95.68
2022-09-05T00:24:54.752Z,95.00
2022-09-05T00:27:43.602Z,95.67
2022-09-05T00:31:50.600Z,95.87
2022-09-05T00:33:37.681Z,96.36
2022-09-05T00:36:07.138Z,97.29
2022-09-05T00:38:36.717Z,97.08
2022-09-05T00:41:09.704Z,98.46
2022-09-05T00:43:43.715Z,99.16
2022-09-05T00:46:17.672Z,98.67
2022-09-05T00:48:51.034Z,98.18
2022-09-05T00:51:46.146Z,98.67
2022-09-05T00:54:41.805Z,99.55
2022-09-05T00:57:09.236Z,100.00
2022-09-05T00:59:58.966Z,100.00
2022-09-05T01:02:40.247Z,100.00
2022-09-05T01:05:37.389Z,100.00
2022-09-05T01:08:16.789Z,100.00
2022-09-05T01:11:12.634Z,100.00
2022-09-05T01:14:13.028Z,100.00
2022-09-05T01:17:01.555Z,100.00
2022-09-05T01:19:44.199Z,100.00
2022-09-05T01:22:40.710Z,100.00
2022-09-05T01:25:30.456Z,100.00
2022-09-05T01:29:15.297Z,100.00
2022-09-05T01:31:18.725Z,100.00
2022-09-05T01:34:00.737Z,100.00
2022-09-05T01:36:51.794Z,100.00
2022-09-05T01:40:10.648Z,100.00
2022-09-05T01:42:25.489Z,100.00
2022-09-05T01:45:19.954Z,100.00
2022-09-05T01:47:52.628Z,100.00
2022-09-05T01:50:48.284Z,100.00
2022-09-05T01:53:33.422Z,100.00
2022-09-05T01:56:07.495Z,100.00
2022-09-05T01:58:46.678Z,100.00
2022-09-05T02:01:33.235Z,100.00
2022-09-05T02:04:27.966Z,100.00
2022-09-05T02:07:22.542Z,100.00
2022-09-05T02:10:29.360Z,100.00
2022-09-05T02:13:13.400Z,100.00
2022-09-05T02:15:55.413Z,100.00
2022-09-05T02:18:47.928Z,100.00
2022-09-05T02:21:33.517Z,100.00
2022-09-05T02:24:32.291Z,100.00
2022-09-05T02:28:03.694Z,100.00
2022-09-05T02:30:09.134Z,100.00
2022-09-05T02:32:48.461Z,100.00
2022-09-05T02:35:40.328Z,100.00
2022-09-05T02:44:35.866Z,100.00
2022-09-05T02:45:09.512Z,100.00
2022-09-05T02:45:19.431Z,100.00
2022-09-05T02:47:05.363Z,100.00
2022-09-05T02:51:48.772Z,100.00
2022-09-05T02:57:38.561Z,100.00
2022-09-05T02:57:41.753Z,100.00
2022-09-05T02:58:47.872Z,100.00
2022-09-05T03:01:33.094Z,100.00
2022-09-05T03:04:34.614Z,100.00
2022-09-05T03:07:18.245Z,100.00
2022-09-05T03:10:01.560Z,100.00
2022-09-05T03:13:05.336Z,100.00
2022-09-05T03:16:17.300Z,100.00
2022-09-05T03:18:52.825Z,100.00
2022-09-05T03:21:47.954Z,100.00
2022-09-05T03:24:33.149Z,100.00
2022-09-05T03:27:05.439Z,100.00
2022-09-05T03:29:46.255Z,100.00
2022-09-05T03:32:12.590Z,100.00
2022-09-05T03:34:48.136Z,100.00
2022-09-05T03:37:14.585Z,100.00
2022-09-05T03:39:41.049Z,100.00
2022-09-05T03:42:30.444Z,100.00
2022-09-05T03:44:57.436Z,100.00
2022-09-05T03:47:42.521Z,100.00
2022-09-05T03:56:24.100Z,100.00
2022-09-05T03:57:10.812Z,100.00
2022-09-05T03:57:14.134Z,100.00
2022-09-05T03:59:35.979Z,100.00
2022-09-05T04:08:05.787Z,100.00
2022-09-05T04:08:19.114Z,100.00
2022-09-05T04:08:19.423Z,100.00
2022-09-05T04:10:43.256Z,100.00
2022-09-05T04:13:17.304Z,100.00
2022-09-05T04:15:48.316Z,100.00
2022-09-05T04:18:28.052Z,100.00
2022-09-05T04:21:15.226Z,100.00
2022-09-05T04:23:46.498Z,100.00
2022-09-05T04:26:15.978Z,100.00
2022-09-05T04:28:56.348Z,100.00
2022-09-05T04:31:30.287Z,100.00
2022-09-05T04:34:04.990Z,100.00
2022-09-05T04:36:33.560Z,100.00
2022-09-05T04:39:07.247Z,100.00
2022-09-05T04:41:40.168Z,100.00
2022-09-05T04:44:17.504Z,100.00
2022-09-05T04:46:48.958Z,100.00
2022-09-05T04:49:37.818Z,100.00
2022-09-05T04:52:23.606Z,100.00
2022-09-05T04:55:10.121Z,100.00
2022-09-05T04:57:45.032Z,100.00
2022-09-05T05:06:05.089Z,100.00
2022-09-05T05:06:10.664Z,100.00
2022-09-05T05:06:19.941Z,100.00
2022-09-05T05:08:46.530Z,100.00
2022-09-05T05:16:56.393Z,100.00
2022-09-05T05:18:09.598Z,100.00
2022-09-05T05:18:14.996Z,100.00
2022-09-05T05:20:41.515Z,100.00
2022-09-05T05:23:09.468Z,100.00
2022-09-05T05:25:53.643Z,100.00
2022-09-05T05:28:38.872Z,100.00
2022-09-05T05:31:10.760Z,100.00
2022-09-05T05:33:38.667Z,100.00
2022-09-05T05:36:07.592Z,100.00
2022-09-05T05:38:40.209Z,100.00
2022-09-05T05:41:12.988Z,100.00
2022-09-05T05:43:46.125Z,100.00
2022-09-05T05:46:15.647Z,100.00
2022-09-05T05:48:44.166Z,100.00
2022-09-05T05:51:47.548Z,100.00
2022-09-05T05:54:28.987Z,100.00
2022-09-05T05:57:01.545Z,100.00
2022-09-05T05:59:55.365Z,100.00
2022-09-05T06:02:42.039Z,100.00
2022-09-05T06:05:16.663Z,100.00
2022-09-05T06:10:31.809Z,99.26
2022-09-05T06:14:55.063Z,98.43
2022-09-05T06:15:00.722Z,96.67
2022-09-05T06:17:03.670Z,95.42
2022-09-05T06:19:51.828Z,95.62
2022-09-05T06:22:39.375Z,95.13
2022-09-05T06:25:24.547Z,95.62
2022-09-05T06:28:18.455Z,92.09
2022-09-05T06:31:29.499Z,93.37
2022-09-05T06:34:04.096Z,92.31
2022-09-05T06:36:36.321Z,91.75
2022-09-05T06:39:06.369Z,91.98
2022-09-05T06:41:51.742Z,91.67
2022-09-05T06:44:19.220Z,91.01
2022-09-05T06:47:22.835Z,90.26
2022-09-05T06:49:51.853Z,90.89
2022-09-05T06:52:40.897Z,90.48
2022-09-05T06:55:13.487Z,88.57
2022-09-05T06:57:54.470Z,87.46
2022-09-05T07:00:23.808Z,86.71
2022-09-05T07:03:00.591Z,86.31
2022-09-05T07:05:40.359Z,87.00
2022-09-05T07:08:36.065Z,86.12
2022-09-05T07:11:16.267Z,84.99
2022-09-05T07:14:02.244Z,84.10
2022-09-05T07:16:44.391Z,82.82
2022-09-05T07:19:29.768Z,83.12
2022-09-05T07:22:06.219Z,83.17
2022-09-05T07:24:54.637Z,81.96
2022-09-05T07:28:26.733Z,80.86
2022-09-05T07:30:32.870Z,79.56
2022-09-05T07:33:01.582Z,79.75
2022-09-05T07:35:41.403Z,79.98
2022-09-05T07:38:13.936Z,79.53
2022-09-05T07:40:46.234Z,79.09
2022-09-05T07:43:19.035Z,77.00
2022-09-05T07:45:56.494Z,76.88
2022-09-05T07:48:34.261Z,75.81
2022-09-05T07:56:50.532Z,73.41
2022-09-05T07:56:52.573Z,70.26
2022-09-05T07:57:08.355Z,73.01
2022-09-05T07:59:33.729Z,69.36
2022-09-05T08:02:01.112Z,65.78
2022-09-05T08:04:29.127Z,61.63
2022-09-05T08:07:47.841Z,59.93
2022-09-05T08:10:07.089Z,57.35
2022-09-05T08:13:23.374Z,56.45
2022-09-05T08:16:00.707Z,54.79
2022-09-05T08:18:38.734Z,53.78
2022-09-05T08:21:11.689Z,55.61
2022-09-05T08:23:56.830Z,54.84
2022-09-05T08:26:49.482Z,57.32
2022-09-05T08:29:42.233Z,58.87
2022-09-05T08:32:13.358Z,57.28
2022-09-05T08:34:45.373Z,57.58
2022-09-05T08:37:15.149Z,57.35
2022-09-05T08:40:11.575Z,58.52
2022-09-05T08:44:02.743Z,57.74
2022-09-05T08:46:43.267Z,58.21
2022-09-05T08:48:40.089Z,59.37
2022-09-05T08:51:25.347Z,58.15
2022-09-05T08:54:03.302Z,60.09
2022-09-05T08:56:45.010Z,61.42
2022-09-05T08:59:33.331Z,62.59
2022-09-05T09:02:46.009Z,62.36
2022-09-05T09:05:22.239Z,63.80
2022-09-05T09:07:51.900Z,63.05
2022-09-05T09:10:30.895Z,63.59
2022-09-05T09:13:17.521Z,65.39
2022-09-05T09:15:50.211Z,60.36
2022-09-05T09:18:17.757Z,59.74
2022-09-05T09:20:47.626Z,57.04
2022-09-05T09:23:52.828Z,54.27
2022-09-05T09:26:25.412Z,52.97
2022-09-05T09:28:54.560Z,49.95
2022-09-05T09:31:39.975Z,46.41
2022-09-05T09:34:06.692Z,45.46
2022-09-05T09:36:39.362Z,45.49
2022-09-05T09:39:37.811Z,42.51
2022-09-05T09:41:58.364Z,44.79
2022-09-05T09:44:24.748Z,41.66
2022-09-05T09:46:51.935Z,39.78
2022-09-05T09:49:31.083Z,39.73
2022-09-05T09:52:04.266Z,36.91
2022-09-05T09:54:40.380Z,37.14
2022-09-05T09:57:25.675Z,36.32
2022-09-05T10:00:11.922Z,35.05
2022-09-05T10:05:35.431Z,37.48
2022-09-05T10:10:40.084Z,36.41
2022-09-05T10:11:18.796Z,36.79
2022-09-05T10:11:53.619Z,34.72
2022-09-05T10:14:27.797Z,35.80
2022-09-05T10:17:10.318Z,36.16
2022-09-05T10:22:51.622Z,35.32
2022-09-05T10:25:19.555Z,34.16
2022-09-05T10:27:52.274Z,32.97
2022-09-05T10:30:27.996Z,33.92
2022-09-05T10:35:19.947Z,34.34
2022-09-05T10:36:24.767Z,34.57
2022-09-05T10:39:03.412Z,36.41
2022-09-05T10:44:31.909Z,33.17
2022-09-05T10:47:17.131Z,35.46
2022-09-05T10:53:22.107Z,44.44
2022-09-05T11:02:20.212Z,40.89
2022-09-05T11:02:33.652Z,39.78
2022-09-05T11:05:19.421Z,35.95
2022-09-05T11:07:59.336Z,37.38
2022-09-05T11:10:38.398Z,36.99
2022-09-05T11:13:24.972Z,39.64
2022-09-05T11:16:03.584Z,41.55
2022-09-05T11:18:56.504Z,42.58
2022-09-05T11:21:29.658Z,44.36
2022-09-05T11:24:00.150Z,47.05
2022-09-05T11:26:29.899Z,44.76
2022-09-05T11:29:09.583Z,46.14
2022-09-05T11:34:24.761Z,46.82
2022-09-05T11:39:55.848Z,46.76
2022-09-05T11:40:10.436Z,46.60
2022-09-05T11:40:31.711Z,44.58
2022-09-05T11:43:06.643Z,45.10
2022-09-05T11:45:36.842Z,45.88
2022-09-05T11:48:22.268Z,47.26
2022-09-05T11:51:09.308Z,47.16
2022-09-05T11:53:42.066Z,48.90
2022-09-05T11:56:29.027Z,49.25
2022-09-05T11:59:14.649Z,46.87
2022-09-05T12:01:55.156Z,47.27
2022-09-05T12:05:48.364Z,46.22
2022-09-05T12:08:00.382Z,46.61
2022-09-05T12:10:48.288Z,45.09
2022-09-05T12:13:32.224Z,41.02
2022-09-05T12:16:07.577Z,41.14
2022-09-05T12:18:35.181Z,41.65
2022-09-05T12:21:26.008Z,41.48
2022-09-05T12:25:15.386Z,44.94
2022-09-05T12:27:39.807Z,46.61
2022-09-05T12:29:54.219Z,45.91
2022-09-05T12:34:11.982Z,45.50
2022-09-05T12:36:12.713Z,47.23
2022-09-05T12:41:44.236Z,49.18
2022-09-05T12:42:08.647Z,48.75
2022-09-05T12:44:42.524Z,50.56
2022-09-05T12:47:16.643Z,52.57
2022-09-05T12:49:55.643Z,53.71
2022-09-05T12:52:34.570Z,54.48
2022-09-05T12:55:19.175Z,53.03
2022-09-05T13:02:55.443Z,54.82
2022-09-05T13:03:02.751Z,54.57
2022-09-05T13:04:17.892Z,54.79
2022-09-05T13:06:48.104Z,56.46
2022-09-05T13:11:51.663Z,56.68
2022-09-05T13:14:58.997Z,57.91
2022-09-05T13:15:41.881Z,61.09
2022-09-05T13:18:16.272Z,59.85
2022-09-05T13:27:01.679Z,61.61
2022-09-05T13:31:34.874Z,61.76
2022-09-05T13:38:05.634Z,63.88
2022-09-05T13:38:17.483Z,62.81
2022-09-05T13:54:31.644Z,63.33
2022-09-05T14:00:32.562Z,67.69
2022-09-05T14:06:08.553Z,68.54
2022-09-05T14:12:06.737Z,67.30
2022-09-05T14:17:51.538Z,78.43
2022-09-05T14:20:38.169Z,80.94
2022-09-05T14:23:15.251Z,78.73
2022-09-05T14:25:54.820Z,82.26
2022-09-05T14:28:26.397Z,81.08
2022-09-05T14:32:54.485Z,84.05
2022-09-05T14:37:48.703Z,85.25
2022-09-05T14:37:55.740Z,88.54
2022-09-05T14:39:45.189Z,84.55
2022-09-05T14:42:21.252Z,84.32
2022-09-05T14:45:06.510Z,82.58
2022-09-05T14:47:36.647Z,80.57
2022-09-05T14:50:27.531Z,74.74
2022-09-05T14:57:06.821Z,69.48
2022-09-05T15:02:44.636Z,71.37
2022-09-05T15:02:50.440Z,72.63
2022-09-05T15:04:47.196Z,71.32
2022-09-05T15:07:16.018Z,69.90
2022-09-05T15:12:16.710Z,67.38
2022-09-05T15:12:38.595Z,67.19
2022-09-05T15:15:16.080Z,67.17
2022-09-05T15:17:47.866Z,67.74
2022-09-05T15:20:36.103Z,65.56
2022-09-05T15:23:11.263Z,67.07
2022-09-05T15:26:02.570Z,64.15
2022-09-05T15:28:36.740Z,63.41
2022-09-05T15:31:10.772Z,62.70
2022-09-05T15:33:38.210Z,62.85
2022-09-05T15:36:05.703Z,62.54
2022-09-05T15:38:54.486Z,62.49
2022-09-05T15:41:22.838Z,65.06
2022-09-05T15:43:51.541Z,62.08
2022-09-05T15:46:23.368Z,63.11
2022-09-05T15:48:55.718Z,63.03
2022-09-05T15:51:40.574Z,63.26
2022-09-05T15:54:08.694Z,63.96
2022-09-05T15:56:46.139Z,64.36
2022-09-05T15:59:12.870Z,64.25
2022-09-05T16:01:59.710Z,65.62
2022-09-05T16:10:28.124Z,67.92
2022-09-05T16:10:41.439Z,66.83
2022-09-05T16:10:42.875Z,67.43
2022-09-05T16:12:54.431Z,67.59
2022-09-05T16:18:42.647Z,68.71
2022-09-05T16:23:13.668Z,69.02
2022-09-05T16:23:24.547Z,70.35
2022-09-05T16:24:06.164Z,70.83
2022-09-05T16:26:42.704Z,71.08
2022-09-05T16:29:12.782Z,72.41
2022-09-05T16:31:48.976Z,71.52
2022-09-05T16:34:22.664Z,72.68
2022-09-05T16:37:07.895Z,73.20
2022-09-05T16:39:37.401Z,73.43
2022-09-05T16:42:11.410Z,71.46
2022-09-05T16:44:44.059Z,73.45
2022-09-05T16:47:11.704Z,72.19
2022-09-05T16:49:52.304Z,71.30
2022-09-05T16:52:25.560Z,71.26
2022-09-05T16:55:00.255Z,71.53
2022-09-05T16:57:30.362Z,72.43
2022-09-05T16:59:57.781Z,72.84
2022-09-05T17:02:30.596Z,74.58
2022-09-05T17:05:23.420Z,75.36
2022-09-05T17:07:53.290Z,74.86
2022-09-05T17:10:24.278Z,72.86
2022-09-05T17:12:51.811Z,73.30
2022-09-05T17:15:30.514Z,72.77
2022-09-05T17:18:25.930Z,74.06
2022-09-05T17:20:56.784Z,72.83
2022-09-05T17:29:12.990Z,73.15
2022-09-05T17:29:28.938Z,73.57
2022-09-05T17:32:36.613Z,75.71
2022-09-05T17:35:18.019Z,75.45
2022-09-05T17:38:11.864Z,76.16
2022-09-05T17:40:59.344Z,76.65
2022-09-05T17:43:31.098Z,77.13
2022-09-05T17:46:13.702Z,78.27
2022-09-05T17:49:11.446Z,76.99
2022-09-05T17:51:50.992Z,76.65
2022-09-05T17:54:28.394Z,77.58
2022-09-05T17:56:54.798Z,78.50
2022-09-05T17:59:23.070Z,79.38
2022-09-05T18:02:04.671Z,78.69
2022-09-05T18:04:47.746Z,79.37
2022-09-05T18:07:26.357Z,78.56
2022-09-05T18:10:12.267Z,80.53
2022-09-05T18:13:12.956Z,79.90
2022-09-05T18:15:31.810Z,81.69
2022-09-05T18:17:59.146Z,81.11
2022-09-05T18:20:33.372Z,81.81
2022-09-05T18:23:37.424Z,81.85
2022-09-05T18:25:49.273Z,82.98
2022-09-05T18:28:48.368Z,84.24
2022-09-05T18:31:40.814Z,84.41
2022-09-05T18:34:14.663Z,84.76
2022-09-05T18:36:48.598Z,85.18
2022-09-05T18:39:40.379Z,85.23
2022-09-05T18:42:25.811Z,87.38
2022-09-05T18:44:59.524Z,86.74
2022-09-05T18:47:53.269Z,86.54
2022-09-05T18:50:28.076Z,86.57
2022-09-05T18:53:09.490Z,88.79
2022-09-05T18:56:12.288Z,87.73
2022-09-05T18:58:26.959Z,87.52
2022-09-05T19:00:54.912Z,89.42
2022-09-05T19:03:27.803Z,89.08
2022-09-05T19:06:36.582Z,89.18
2022-09-05T19:08:53.900Z,88.92
2022-09-05T19:11:29.009Z,89.15
2022-09-05T19:14:25.349Z,89.72
2022-09-05T19:16:47.909Z,88.69
2022-09-05T19:19:16.984Z,88.40
2022-09-05T19:21:46.205Z,88.30
2022-09-05T19:24:44.790Z,88.13
2022-09-05T19:28:58.416Z,88.32
2022-09-05T19:36:52.792Z,87.57
2022-09-05T19:36:55.832Z,86.97
2022-09-05T19:37:09.604Z,87.24
2022-09-05T19:38:20.357Z,87.11
2022-09-05T19:47:27.951Z,87.79
2022-09-05T19:47:38.166Z,86.71
2022-09-05T19:47:56.508Z,88.63
2022-09-05T19:49:12.958Z,88.63
2022-09-05T19:51:41.261Z,90.29
2022-09-05T19:54:08.296Z,88.75
2022-09-05T19:56:39.646Z,89.96
2022-09-05T19:59:19.323Z,89.34
2022-09-05T20:04:53.025Z,90.66
2022-09-05T20:07:24.523Z,90.11
2022-09-05T20:09:52.287Z,91.16
2022-09-05T20:12:54.695Z,92.12
2022-09-05T20:20:54.222Z,91.70
2022-09-05T22:49:43.597Z,100.00
2022-09-05T22:52:10.046Z,100.00
2022-09-05T22:54:36.460Z,100.00
2022-09-05T22:57:03.714Z,100.00
2022-09-05T22:59:30.100Z,100.00
2022-09-05T23:01:56.581Z,100.00
2022-09-05T23:04:23.631Z,100.00
2022-09-05T23:06:49.994Z,100.00
2022-09-05T23:09:16.491Z,100.00
2022-09-05T23:11:42.921Z,100.00
2022-09-05T23:14:09.328Z,100.00
2022-09-05T23:16:35.719Z,100.00
2022-09-05T23:19:02.167Z,100.00
2022-09-05T23:21:28.605Z,100.00
2022-09-05T23:23:54.966Z,100.00
2022-09-05T23:26:22.060Z,100.00
2022-09-05T23:28:48.394Z,100.00
2022-09-05T23:31:14.853Z,100.00
2022-09-05T23:33:41.915Z,100.00
2022-09-05T23:36:09.217Z,100.00
2022-09-05T23:38:35.773Z,100.00
2022-09-05T23:41:03.353Z,100.00
2022-09-05T23:43:29.868Z,100.00
2022-09-05T23:45:56.530Z,100.00
2022-09-05T23:48:23.078Z,100.00
2022-09-05T23:50:50.126Z,100.00
2022-09-05T23:53:16.597Z,100.00
2022-09-05T23:55:43.425Z,100.00
2022-09-05T23:58:10.491Z,100.00
